createdAt,value
2022-10-19T00:01:25.357Z,99518.50
2022-10-19T00:04:29.010Z,99514.44
2022-10-19T00:07:31.910Z,99510.88
2022-10-19T00:10:34.907Z,99504.72
2022-10-19T00:13:39.225Z,99503.44
2022-10-19T00:16:43.768Z,99501.31
2022-10-19T00:19:46.497Z,99511.16
2022-10-19T00:22:50.691Z,99506.63
2022-10-19T00:25:57.122Z,99502.75
2022-10-19T00:29:02.001Z,99499.97
2022-10-19T00:32:04.764Z,99507.41
2022-10-19T00:35:08.778Z,99508.06
2022-10-19T00:38:11.419Z,99511.75
2022-10-19T00:41:14.587Z,99519.31
2022-10-19T00:44:54.602Z,99525.28
2022-10-19T00:47:58.642Z,99518.19
2022-10-19T00:51:01.552Z,99523.25
2022-10-19T00:54:06.312Z,99524.56
2022-10-19T00:57:09.959Z,99519.94
2022-10-19T01:00:13.161Z,99519.16
2022-10-19T01:03:17.169Z,99530.13
2022-10-19T01:06:19.921Z,99519.28
2022-10-19T01:09:22.756Z,99523.16
2022-10-19T01:12:54.155Z,99523.47
2022-10-19T01:16:02.014Z,99511.00
2022-10-19T01:19:16.700Z,99519.06
2022-10-19T01:22:31.869Z,99513.06
2022-10-19T01:25:44.202Z,99513.34
2022-10-19T01:28:52.312Z,99512.38
2022-10-19T01:32:01.091Z,99507.00
2022-10-19T01:35:08.201Z,99506.38
2022-10-19T01:38:17.143Z,99494.84
2022-10-19T01:41:24.152Z,99495.81
2022-10-19T01:44:29.561Z,99494.34
2022-10-19T01:47:36.180Z,99498.22
2022-10-19T01:50:42.721Z,99487.88
2022-10-19T01:53:48.837Z,99485.06
2022-10-19T01:56:52.673Z,99486.50
2022-10-19T01:59:55.696Z,99485.34
2022-10-19T02:03:00.524Z,99485.50
2022-10-19T02:06:05.404Z,99483.56
2022-10-19T02:09:08.560Z,99488.41
2022-10-19T02:12:12.297Z,99479.94
2022-10-19T02:15:19.004Z,99479.94
2022-10-19T02:18:26.731Z,99481.69
2022-10-19T02:21:29.799Z,99478.28
2022-10-19T02:24:32.745Z,99466.78
2022-10-19T02:27:35.911Z,99470.16
2022-10-19T02:30:39.032Z,99467.06
2022-10-19T02:33:43.158Z,99457.69
2022-10-19T02:36:46.138Z,99450.34
2022-10-19T02:39:48.951Z,99450.03
2022-10-19T02:42:54.313Z,99447.72
2022-10-19T02:46:00.981Z,99451.94
2022-10-19T02:49:05.593Z,99451.94
2022-10-19T02:52:10.288Z,99448.69
2022-10-19T02:55:13.066Z,99448.81
2022-10-19T02:58:15.828Z,99449.47
2022-10-19T03:01:18.560Z,99441.22
2022-10-19T03:04:22.717Z,99443.03
2022-10-19T03:07:25.636Z,99442.56
2022-10-19T03:10:28.760Z,99452.44
2022-10-19T03:13:31.496Z,99445.31
2022-10-19T03:16:34.255Z,99433.50
2022-10-19T03:19:38.627Z,99437.38
2022-10-19T03:22:41.399Z,99433.81
2022-10-19T03:25:44.196Z,99427.66
2022-10-19T03:28:47.117Z,99425.69
2022-10-19T03:31:49.967Z,99421.00
2022-10-19T03:34:53.963Z,99420.00
2022-10-19T03:37:56.742Z,99425.16
2022-10-19T03:40:59.555Z,99423.22
2022-10-19T03:44:02.553Z,99427.56
2022-10-19T03:47:05.284Z,99423.56
2022-10-19T03:50:11.365Z,99423.06
2022-10-19T03:53:14.199Z,99411.13
2022-10-19T03:56:18.295Z,99421.66
2022-10-19T03:59:21.808Z,99413.28
2022-10-19T04:02:24.338Z,99417.50
2022-10-19T04:05:28.444Z,99425.03
2022-10-19T04:08:31.499Z,99424.06
2022-10-19T04:11:35.254Z,99426.34
2022-10-19T04:14:52.500Z,99424.06
2022-10-19T04:17:59.235Z,99416.28
2022-10-19T04:21:06.167Z,99417.91
2022-10-19T04:24:12.954Z,99410.78
2022-10-19T04:27:16.019Z,99416.69
2022-10-19T04:30:18.866Z,99414.09
2022-10-19T04:33:21.758Z,99411.19
2022-10-19T04:36:26.022Z,99409.00
2022-10-19T04:39:28.878Z,99419.25
2022-10-19T04:42:31.734Z,99420.66
2022-10-19T04:45:36.363Z,99423.41
2022-10-19T04:48:40.291Z,99428.28
2022-10-19T04:51:44.404Z,99418.94
2022-10-19T04:54:47.491Z,99417.84
2022-10-19T04:57:50.380Z,99414.59
2022-10-19T05:00:53.394Z,99411.84
2022-10-19T05:07:06.249Z,99417.19
2022-10-19T05:10:10.608Z,99415.59
2022-10-19T05:13:13.282Z,99409.09
2022-10-19T05:16:17.816Z,99413.13
2022-10-19T05:19:20.585Z,99414.38
2022-10-19T05:22:24.699Z,99417.88
2022-10-19T05:25:27.466Z,99418.19
2022-10-19T05:28:30.672Z,99424.75
2022-10-19T05:31:34.929Z,99413.44
2022-10-19T05:34:37.885Z,99410.03
2022-10-19T05:37:42.035Z,99410.19
2022-10-19T05:40:52.888Z,99413.56
2022-10-19T05:43:58.467Z,99418.78
2022-10-19T05:47:01.157Z,99419.22
2022-10-19T05:50:03.886Z,99418.41
2022-10-19T05:53:07.945Z,99413.16
2022-10-19T05:56:14.682Z,99419.16
2022-10-19T05:59:19.009Z,99421.22
2022-10-19T06:02:21.601Z,99422.84
2022-10-19T06:05:24.263Z,99422.00
2022-10-19T06:08:28.139Z,99426.50
2022-10-19T06:11:33.900Z,99426.91
2022-10-19T06:14:36.598Z,99431.06
2022-10-19T06:17:39.362Z,99435.66
2022-10-19T06:20:43.115Z,99427.50
2022-10-19T06:23:51.557Z,99421.00
2022-10-19T06:26:54.301Z,99426.41
2022-10-19T06:29:57.009Z,99427.81
2022-10-19T06:32:59.826Z,99437.03
2022-10-19T06:36:07.224Z,99436.03
2022-10-19T06:39:11.266Z,99438.19
2022-10-19T06:42:13.885Z,99435.34
2022-10-19T06:45:16.607Z,99434.81
2022-10-19T06:48:19.168Z,99442.75
2022-10-19T06:51:22.489Z,99440.66
2022-10-19T06:54:27.092Z,99453.94
2022-10-19T06:57:29.903Z,99450.72
2022-10-19T07:00:32.549Z,99449.38
2022-10-19T07:03:35.411Z,99441.09
2022-10-19T07:06:38.424Z,99447.19
2022-10-19T07:09:42.716Z,99448.00
2022-10-19T07:12:45.481Z,99450.22
2022-10-19T07:15:48.348Z,99446.19
2022-10-19T07:18:52.760Z,99450.25
2022-10-19T07:21:55.428Z,99443.47
2022-10-19T07:24:59.655Z,99442.56
2022-10-19T07:28:02.292Z,99443.66
2022-10-19T07:31:10.483Z,99445.50
2022-10-19T07:34:14.726Z,99450.97
2022-10-19T07:37:17.512Z,99446.09
2022-10-19T07:40:21.503Z,99444.88
2022-10-19T07:43:24.508Z,99445.78
2022-10-19T07:46:29.610Z,99446.63
2022-10-19T07:49:32.244Z,99446.28
2022-10-19T07:52:36.904Z,99444.31
2022-10-19T07:55:41.485Z,99446.38
2022-10-19T07:58:44.543Z,99448.34
2022-10-19T08:01:48.765Z,99446.66
2022-10-19T08:05:02.815Z,99449.91
2022-10-19T08:08:07.926Z,99438.78
2022-10-19T08:11:13.371Z,99445.25
2022-10-19T08:14:15.913Z,99444.59
2022-10-19T08:17:18.526Z,99446.31
2022-10-19T08:20:21.488Z,99449.88
2022-10-19T08:23:27.045Z,99453.19
2022-10-19T08:26:32.615Z,99453.59
2022-10-19T08:29:35.276Z,99443.19
2022-10-19T08:32:37.899Z,99438.06
2022-10-19T08:35:40.558Z,99440.59
2022-10-19T08:38:45.078Z,99440.13
2022-10-19T08:41:58.863Z,99438.88
2022-10-19T08:45:27.143Z,99449.16
2022-10-19T08:48:32.845Z,99452.63
2022-10-19T08:51:39.208Z,99451.03
2022-10-19T08:54:44.562Z,99446.66
2022-10-19T08:57:54.646Z,99444.34
2022-10-19T09:01:04.797Z,99448.19
2022-10-19T09:04:11.055Z,99445.50
2022-10-19T09:07:26.001Z,99441.38
2022-10-19T09:10:30.863Z,99443.28
2022-10-19T09:13:47.017Z,99435.41
2022-10-19T09:17:04.617Z,99438.91
2022-10-19T09:20:19.309Z,99436.06
2022-10-19T09:23:26.173Z,99435.03
2022-10-19T09:26:30.338Z,99431.09
2022-10-19T09:29:38.473Z,99427.28
2022-10-19T09:32:41.508Z,99426.66
2022-10-19T09:35:45.602Z,99422.09
2022-10-19T09:38:49.231Z,99422.38
2022-10-19T09:41:56.579Z,99427.06
2022-10-19T09:45:02.564Z,99423.13
2022-10-19T09:48:15.323Z,99431.81
2022-10-19T09:51:18.641Z,99428.13
2022-10-19T09:54:26.696Z,99430.13
2022-10-19T09:57:29.321Z,99428.50
2022-10-19T10:00:39.145Z,99431.03
2022-10-19T10:03:43.618Z,99425.75
2022-10-19T10:06:49.406Z,99424.94
2022-10-19T10:09:53.595Z,99422.72
2022-10-19T10:12:57.372Z,99430.94
2022-10-19T10:16:02.965Z,99416.13
2022-10-19T10:19:08.005Z,99418.19
2022-10-19T10:22:25.914Z,99425.00
2022-10-19T10:25:31.503Z,99418.34
2022-10-19T10:28:34.160Z,99419.63
2022-10-19T10:31:38.893Z,99420.47
2022-10-19T10:34:51.244Z,99417.91
2022-10-19T10:38:06.111Z,99412.63
2022-10-19T10:41:13.892Z,99401.84
2022-10-19T10:44:20.883Z,99409.56
2022-10-19T10:47:27.041Z,99393.50
2022-10-19T10:50:35.082Z,99394.94
2022-10-19T10:53:39.965Z,99387.09
2022-10-19T10:56:43.599Z,99378.84
2022-10-19T10:59:55.480Z,99382.50
2022-10-19T11:03:02.492Z,99384.56
2022-10-19T11:06:05.194Z,99380.59
2022-10-19T11:09:17.934Z,99373.03
2022-10-19T11:12:32.791Z,99370.94
2022-10-19T11:15:40.753Z,99371.25
2022-10-19T11:18:48.627Z,99372.97
2022-10-19T11:21:57.529Z,99361.34
2022-10-19T11:25:20.615Z,99347.31
2022-10-19T11:28:36.858Z,99343.69
2022-10-19T11:31:45.891Z,99342.25
2022-10-19T11:35:02.084Z,99331.22
2022-10-19T11:38:30.115Z,99329.22
2022-10-19T11:41:39.256Z,99320.41
2022-10-19T11:44:51.831Z,99324.88
2022-10-19T11:48:04.012Z,99310.06
2022-10-19T11:51:28.530Z,99305.94
2022-10-19T11:54:40.188Z,99309.88
2022-10-19T11:57:49.443Z,99305.28
2022-10-19T12:00:58.448Z,99294.72
2022-10-19T12:04:08.617Z,99286.63
2022-10-19T12:07:41.038Z,99287.47
2022-10-19T12:10:49.964Z,99284.44
2022-10-19T12:13:54.899Z,99283.94
2022-10-19T12:17:00.189Z,99278.44
2022-10-19T12:20:06.113Z,99278.06
2022-10-19T12:23:24.587Z,99279.56
2022-10-19T12:26:31.301Z,99269.34
2022-10-19T12:29:37.537Z,99273.00
2022-10-19T12:32:52.001Z,99269.84
2022-10-19T12:36:03.135Z,99267.28
2022-10-19T12:39:13.783Z,99264.81
2022-10-19T12:42:23.281Z,99262.50
2022-10-19T12:45:30.339Z,99257.84
2022-10-19T12:48:36.306Z,99257.91
2022-10-19T12:51:46.080Z,99265.94
2022-10-19T12:54:48.679Z,99255.16
2022-10-19T12:58:01.900Z,99243.19
2022-10-19T13:01:05.270Z,99234.31
2022-10-19T13:04:09.579Z,99238.16
2022-10-19T13:07:18.128Z,99237.50
2022-10-19T13:10:22.791Z,99230.25
2022-10-19T13:14:06.100Z,99226.41
2022-10-19T13:17:10.009Z,99212.84
2022-10-19T13:20:51.702Z,99216.81
2022-10-19T13:24:21.039Z,99218.25
2022-10-19T13:27:39.799Z,99208.19
2022-10-19T13:31:12.901Z,99205.56
2022-10-19T13:34:17.450Z,99195.63
2022-10-19T13:37:20.580Z,99193.47
2022-10-19T13:40:24.733Z,99182.03
2022-10-19T13:43:30.518Z,99190.09
2022-10-19T13:46:55.386Z,99187.59
2022-10-19T13:50:26.800Z,99185.22
2022-10-19T13:53:38.986Z,99182.16
2022-10-19T13:57:05.260Z,99176.91
2022-10-19T14:00:15.465Z,99165.44
2022-10-19T14:03:29.322Z,99161.06
2022-10-19T14:06:34.974Z,99154.78
2022-10-19T14:10:00.690Z,99159.84
2022-10-19T14:13:04.711Z,99147.31
2022-10-19T14:16:10.246Z,99131.03
2022-10-19T14:19:15.825Z,99140.38
2022-10-19T14:22:21.321Z,99130.97
2022-10-19T14:25:26.937Z,99124.06
2022-10-19T14:28:30.331Z,99125.97
2022-10-19T14:31:35.715Z,99116.19
2022-10-19T14:34:42.237Z,99112.84
2022-10-19T14:37:45.056Z,99103.81
2022-10-19T14:40:47.713Z,99108.63
2022-10-19T14:43:50.305Z,99112.81
2022-10-19T14:46:53.004Z,99116.19
2022-10-19T14:49:57.550Z,99103.41
2022-10-19T14:53:05.026Z,99115.41
2022-10-19T14:56:09.942Z,99121.09
2022-10-19T14:59:22.392Z,99106.31
2022-10-19T15:02:26.893Z,99108.97
2022-10-19T15:05:34.831Z,99111.66
2022-10-19T15:08:42.475Z,99104.00
2022-10-19T15:11:49.782Z,99107.63
2022-10-19T15:14:52.638Z,99090.81
2022-10-19T15:17:57.043Z,99090.00
2022-10-19T15:21:12.964Z,99098.22
2022-10-19T15:24:25.708Z,99091.06
2022-10-19T15:27:33.989Z,99080.91
2022-10-19T15:30:37.132Z,99090.06
2022-10-19T15:33:41.469Z,99089.81
2022-10-19T15:36:54.778Z,99087.78
2022-10-19T15:39:57.740Z,99086.28
2022-10-19T15:43:01.034Z,99081.28
2022-10-19T15:46:03.913Z,99075.56
2022-10-19T15:49:45.677Z,99069.91
2022-10-19T15:52:50.089Z,99066.34
2022-10-19T15:55:52.938Z,99070.59
2022-10-19T15:58:56.949Z,99069.69
2022-10-19T16:01:59.724Z,99069.72
2022-10-19T16:05:02.612Z,99068.88
2022-10-19T16:08:10.102Z,99076.50
2022-10-19T16:11:15.673Z,99061.06
2022-10-19T16:14:18.104Z,99044.81
2022-10-19T16:17:21.099Z,99055.03
2022-10-19T16:20:24.433Z,99053.47
2022-10-19T16:23:30.779Z,99054.63
2022-10-19T16:26:33.552Z,99054.53
2022-10-19T16:29:36.403Z,99055.63
2022-10-19T16:32:43.504Z,99055.16
2022-10-19T16:35:46.581Z,99047.47
2022-10-19T16:38:50.801Z,99056.22
2022-10-19T16:41:53.531Z,99052.44
2022-10-19T16:44:56.456Z,99053.72
2022-10-19T16:47:59.554Z,99062.75
2022-10-19T16:51:20.529Z,99061.25
2022-10-19T16:54:25.813Z,99055.50
2022-10-19T16:57:28.529Z,99056.03
2022-10-19T17:00:31.296Z,99066.31
2022-10-19T17:03:34.144Z,99065.84
2022-10-19T17:06:36.793Z,99063.09
2022-10-19T17:09:42.447Z,99063.09
2022-10-19T17:12:45.846Z,99063.69
2022-10-19T17:15:48.522Z,99070.41
2022-10-19T17:18:53.457Z,99064.00
2022-10-19T17:21:57.619Z,99063.84
2022-10-19T17:25:01.741Z,99066.22
2022-10-19T17:28:04.449Z,99058.66
2022-10-19T17:31:08.960Z,99056.63
2022-10-19T17:34:11.633Z,99062.81
2022-10-19T17:37:14.425Z,99054.41
2022-10-19T17:40:18.546Z,99067.59
2022-10-19T17:43:21.226Z,99059.00
2022-10-19T17:46:26.104Z,99062.69
2022-10-19T17:49:29.712Z,99065.78
2022-10-19T17:52:33.572Z,99076.63
2022-10-19T17:55:38.956Z,99072.06
2022-10-19T17:58:42.026Z,99077.47
2022-10-19T18:01:44.649Z,99074.47
2022-10-19T18:04:47.416Z,99079.13
2022-10-19T18:07:51.290Z,99081.38
2022-10-19T18:11:02.801Z,99078.78
2022-10-19T18:14:07.858Z,99079.84
2022-10-19T18:17:10.661Z,99080.47
2022-10-19T18:20:13.440Z,99075.25
2022-10-19T18:23:16.064Z,99086.47
2022-10-19T18:26:22.205Z,99082.47
2022-10-19T18:29:26.789Z,99081.25
2022-10-19T18:32:29.497Z,99071.19
2022-10-19T18:35:36.438Z,99063.38
2022-10-19T18:38:39.963Z,99066.81
2022-10-19T18:41:43.771Z,99068.31
2022-10-19T18:44:47.311Z,99056.91
2022-10-19T18:47:49.819Z,99055.53
2022-10-19T18:50:52.678Z,99059.88
2022-10-19T18:53:56.075Z,99056.78
2022-10-19T18:57:00.215Z,99053.75
2022-10-19T19:00:03.138Z,99049.09
2022-10-19T19:03:05.856Z,99047.84
2022-10-19T19:06:10.800Z,99047.19
2022-10-19T19:09:13.933Z,99048.97
2022-10-19T19:12:18.051Z,99043.34
2022-10-19T19:15:20.915Z,99039.47
2022-10-19T19:18:23.845Z,99041.34
2022-10-19T19:21:27.758Z,99043.22
2022-10-19T19:24:32.260Z,99042.19
2022-10-19T19:30:47.007Z,99044.16
2022-10-19T19:33:50.690Z,99028.25
2022-10-19T19:36:54.110Z,99027.28
2022-10-19T19:39:56.779Z,99027.75
2022-10-19T19:43:02.781Z,99037.59
2022-10-19T19:49:35.642Z,99022.28
2022-10-19T19:52:40.539Z,99017.25
2022-10-19T19:55:43.386Z,99015.09
2022-10-19T19:58:48.177Z,99014.09
2022-10-19T20:01:51.530Z,99016.25
2022-10-19T20:04:54.396Z,99009.00
2022-10-19T20:07:57.307Z,99003.28
2022-10-19T20:11:03.261Z,99003.91
2022-10-19T20:14:07.221Z,99001.88
2022-10-19T20:17:10.008Z,99001.13
2022-10-19T20:20:14.111Z,99003.28
2022-10-19T20:23:16.814Z,99001.72
2022-10-19T20:26:21.367Z,98996.09
2022-10-19T20:29:25.453Z,98994.19
2022-10-19T20:32:29.498Z,98996.44
2022-10-19T20:35:32.355Z,98994.50
2022-10-19T20:38:35.559Z,98994.22
2022-10-19T20:41:38.222Z,98994.38
2022-10-19T20:44:42.195Z,98992.16
2022-10-19T20:47:44.833Z,98998.59
2022-10-19T20:50:47.507Z,98988.09
2022-10-19T20:53:51.595Z,98983.91
2022-10-19T20:56:54.562Z,98976.84
2022-10-19T20:59:58.571Z,98980.72
2022-10-19T21:03:01.547Z,98979.75
2022-10-19T21:06:05.724Z,98996.84
2022-10-19T21:09:09.217Z,98997.00
2022-10-19T21:12:11.817Z,98992.34
2022-10-19T21:15:16.032Z,98992.00
2022-10-19T21:18:18.719Z,98986.53
2022-10-19T21:21:22.810Z,98987.50
2022-10-19T21:24:27.560Z,98983.63
2022-10-19T21:27:30.347Z,98973.50
2022-10-19T21:30:37.285Z,98966.75
2022-10-19T21:33:39.924Z,98976.56
2022-10-19T21:36:42.974Z,98975.91
2022-10-19T21:39:45.619Z,98979.47
2022-10-19T21:42:48.220Z,98982.03
2022-10-19T21:45:52.224Z,98977.19
2022-10-19T21:48:55.867Z,98974.78
2022-10-19T21:51:58.683Z,98973.31
2022-10-19T21:55:01.250Z,98969.47
2022-10-19T21:58:04.442Z,98956.44
2022-10-19T22:01:09.252Z,98948.06
2022-10-19T22:04:14.266Z,98942.75
2022-10-19T22:07:16.986Z,98949.03
2022-10-19T22:10:19.748Z,98944.84
2022-10-19T22:13:22.450Z,98953.84
2022-10-19T22:16:26.864Z,98949.50
2022-10-19T22:19:29.630Z,98950.13
2022-10-19T22:22:32.750Z,98936.47
2022-10-19T22:25:36.156Z,98947.41
2022-10-19T22:28:39.046Z,98950.00
2022-10-19T22:31:43.251Z,98944.66
2022-10-19T22:34:45.885Z,98944.34
2022-10-19T22:37:48.586Z,98944.34
2022-10-19T22:40:51.389Z,98947.56
2022-10-19T22:43:54.259Z,98942.75
2022-10-19T22:46:58.712Z,98940.66
2022-10-19T22:50:01.904Z,98934.53
2022-10-19T22:53:04.526Z,98935.81
2022-10-19T22:56:08.575Z,98928.38
2022-10-19T22:59:11.015Z,98929.84
2022-10-19T23:02:14.915Z,98928.38
2022-10-19T23:05:17.563Z,98926.16
2022-10-19T23:08:20.161Z,98918.09
2022-10-19T23:11:23.300Z,98911.63
2022-10-19T23:14:26.005Z,98906.28
2022-10-19T23:17:30.111Z,98899.69
2022-10-19T23:20:32.792Z,98898.22
2022-10-19T23:23:36.935Z,98884.25
2022-10-19T23:26:39.522Z,98889.22
2022-10-19T23:29:42.321Z,98888.28
2022-10-19T23:32:46.332Z,98881.81
2022-10-19T23:35:49.044Z,98867.19
2022-10-19T23:38:53.009Z,98872.16
2022-10-19T23:41:55.732Z,98870.41
2022-10-19T23:44:58.303Z,98877.78
2022-10-19T23:48:02.661Z,98877.44
2022-10-19T23:51:07.313Z,98874.56
2022-10-19T23:54:10.128Z,98882.78
2022-10-19T23:57:12.766Z,98886.78
